General Aviation Weather

Text Reports

Enter one or more of the following location identifiers separated by a space:

Zip Code, Four-Character ICAO or Three-Character IATA airport codes.

METAR - Aviation Routine Weather Report
KCWI - Clinton, Iowa
Updated at 5:15 PM GMT on August 03, 2015 (12:15 PM CDT):
METAR KCWI 031715Z 34008KT 10SM CLR 25/11 A2996 RMK AO1
TAF - Terminal Area Forecast
KCWI - Clinton, Iowa
Updated at 5:15 PM GMT on August 03, 2015 (12:15 PM CDT):
No TAF is currently available for this location.
Decoded:
No decoded TAF is available.
PIREP - Pilot Weather Report
KCWI - Clinton, Iowa
Updated at 5:15 PM GMT on August 03, 2015 (12:15 PM CDT):
No PIREP is currently available for this location.
AIRMET - Airmens Meteorological Information
KCWI - Clinton, Iowa
Updated at 5:15 PM GMT on August 03, 2015 (12:15 PM CDT):
No AIRMET is currently available for this location.
SIGMET - Significant Meteorological Information
KCWI - Clinton, Iowa
Updated at 5:15 PM GMT on August 03, 2015 (12:15 PM CDT):
No SIGMET is currently available for this location.
NOTAM - Notice to Airmen
KCWI - Clinton, Iowa
Updated at 5:15 PM GMT on August 03, 2015 (12:15 PM CDT):
No NOTAM is currently available for this location.
Forecast Area
KCWI - Clinton, Iowa
Updated at 5:15 PM GMT on August 03, 2015 (12:15 PM CDT):
No NOTAM is currently available for this location.
Aviation Weather Maps